createdAt,value
2018-07-06T00:01:49.451Z,70.59
2018-07-06T00:04:29.421Z,69.94
2018-07-06T00:07:10.188Z,69.58
2018-07-06T00:09:49.745Z,69.40
2018-07-06T00:12:29.547Z,69.74
2018-07-06T00:15:09.254Z,69.98
2018-07-06T00:17:49.268Z,69.85
2018-07-06T00:20:29.344Z,70.61
2018-07-06T00:23:09.257Z,70.53
2018-07-06T00:25:49.107Z,70.04
2018-07-06T00:28:28.728Z,70.29
2018-07-06T00:31:08.326Z,70.70
2018-07-06T00:33:49.525Z,70.68
2018-07-06T00:36:29.186Z,70.30
2018-07-06T00:39:08.788Z,70.35
2018-07-06T00:41:48.520Z,70.22
2018-07-06T00:44:28.220Z,70.38
2018-07-06T00:47:07.879Z,71.38
2018-07-06T00:49:47.512Z,71.19
2018-07-06T00:52:27.143Z,71.05
2018-07-06T00:55:06.785Z,70.84
2018-07-06T00:57:53.571Z,71.00
2018-07-06T01:00:33.481Z,71.33
2018-07-06T01:03:13.838Z,70.54
2018-07-06T01:05:53.389Z,71.31
2018-07-06T01:08:33.172Z,70.13
2018-07-06T01:11:12.764Z,70.07
2018-07-06T01:13:52.343Z,69.81
2018-07-06T01:16:32.176Z,70.06
2018-07-06T01:19:12.792Z,70.24
2018-07-06T01:21:52.901Z,70.19
2018-07-06T01:24:32.819Z,70.20
2018-07-06T01:27:12.628Z,70.41
2018-07-06T01:29:52.285Z,70.00
2018-07-06T01:32:31.813Z,69.74
2018-07-06T01:35:11.723Z,69.86
2018-07-06T01:37:51.376Z,69.98
2018-07-06T01:40:31.120Z,70.61
2018-07-06T01:43:10.592Z,69.71
2018-07-06T01:45:50.147Z,69.28
2018-07-06T01:48:29.853Z,69.17
2018-07-06T01:51:09.726Z,70.35
2018-07-06T01:53:49.280Z,70.20
2018-07-06T01:56:29.104Z,70.36
2018-07-06T01:59:08.629Z,69.95
2018-07-06T02:07:29.392Z,71.18
2018-07-06T02:10:09.022Z,71.34
2018-07-06T02:12:49.301Z,70.88
2018-07-06T02:15:28.907Z,71.20
2018-07-06T02:18:09.275Z,71.01
2018-07-06T02:20:48.828Z,70.66
2018-07-06T02:23:28.689Z,70.74
2018-07-06T02:26:08.244Z,70.70
2018-07-06T02:28:49.092Z,71.95
2018-07-06T02:31:28.755Z,71.95
2018-07-06T02:34:08.444Z,71.12
2018-07-06T02:36:47.960Z,71.06
2018-07-06T02:39:27.728Z,71.11
2018-07-06T02:42:07.197Z,71.48
2018-07-06T02:44:47.010Z,70.88
2018-07-06T02:47:26.660Z,71.15
2018-07-06T02:50:06.218Z,71.62
2018-07-06T02:52:45.893Z,71.99
2018-07-06T02:55:25.580Z,71.89
2018-07-06T02:58:05.901Z,71.59
2018-07-06T03:00:45.554Z,71.46
2018-07-06T03:03:26.626Z,71.56
2018-07-06T03:06:06.911Z,71.69
2018-07-06T03:08:46.672Z,72.09
2018-07-06T03:11:26.494Z,71.76
2018-07-06T03:14:06.172Z,72.01
2018-07-06T03:16:45.971Z,71.72
2018-07-06T03:19:26.435Z,72.10
2018-07-06T03:22:05.996Z,72.21
2018-07-06T03:24:46.504Z,72.37
2018-07-06T03:27:26.090Z,72.32
2018-07-06T03:30:06.305Z,71.33
2018-07-06T03:32:46.104Z,71.44
2018-07-06T03:35:26.275Z,71.61
2018-07-06T03:38:06.773Z,71.76
2018-07-06T03:40:46.359Z,71.52
2018-07-06T03:43:26.327Z,71.36
2018-07-06T03:46:05.913Z,71.73
2018-07-06T03:48:45.609Z,71.12
2018-07-06T03:51:25.155Z,71.80
2018-07-06T03:54:04.847Z,72.00
2018-07-06T03:56:44.380Z,71.37
2018-07-06T03:59:24.071Z,71.57
2018-07-06T04:02:03.652Z,70.99
2018-07-06T04:04:43.376Z,71.33
2018-07-06T04:07:24.620Z,70.85
2018-07-06T04:10:04.166Z,71.67
2018-07-06T04:12:43.588Z,71.29
2018-07-06T04:15:23.488Z,70.90
2018-07-06T04:18:03.128Z,70.17
2018-07-06T04:20:42.880Z,71.10
2018-07-06T04:23:22.548Z,70.45
2018-07-06T04:26:02.451Z,70.75
2018-07-06T04:28:42.063Z,70.94
2018-07-06T04:31:21.836Z,71.11
2018-07-06T04:34:01.760Z,70.28
2018-07-06T04:36:41.524Z,70.90
2018-07-06T04:39:21.033Z,70.47
2018-07-06T04:42:00.760Z,70.29
2018-07-06T04:44:40.956Z,70.55
2018-07-06T04:47:21.028Z,71.02
2018-07-06T04:50:00.612Z,71.12
2018-07-06T04:52:40.418Z,70.85
2018-07-06T04:55:19.927Z,70.19
2018-07-06T04:58:00.591Z,70.60
2018-07-06T05:00:40.546Z,70.12
2018-07-06T05:03:20.275Z,70.05
2018-07-06T05:05:59.849Z,70.34
2018-07-06T05:08:39.548Z,70.48
2018-07-06T05:11:19.188Z,69.55
2018-07-06T05:13:59.000Z,70.26
2018-07-06T05:16:38.617Z,69.97
2018-07-06T05:19:18.331Z,69.96
2018-07-06T05:21:58.092Z,70.18
2018-07-06T05:24:38.036Z,69.35
2018-07-06T05:27:18.574Z,70.05
2018-07-06T05:29:58.193Z,69.92
2018-07-06T05:32:37.851Z,70.04
2018-07-06T05:35:18.248Z,70.30
2018-07-06T05:37:57.828Z,69.51
2018-07-06T05:43:27.859Z,68.95
2018-07-06T05:46:07.401Z,69.32
2018-07-06T05:48:47.132Z,69.36
2018-07-06T05:51:26.976Z,68.97
2018-07-06T05:54:06.505Z,69.01
2018-07-06T05:56:46.171Z,68.60
2018-07-06T05:59:25.848Z,68.50
2018-07-06T06:02:06.390Z,68.92
2018-07-06T06:04:45.977Z,69.25
2018-07-06T06:07:24.951Z,69.06
2018-07-06T06:09:54.479Z,68.83
2018-07-06T06:12:24.360Z,69.03
2018-07-06T06:14:53.493Z,68.61
2018-07-06T06:17:22.124Z,68.21
2018-07-06T06:19:50.905Z,67.65
2018-07-06T06:22:19.749Z,68.25
2018-07-06T06:24:48.863Z,68.87
2018-07-06T06:27:17.560Z,68.80
2018-07-06T06:29:46.352Z,68.55
2018-07-06T06:32:15.562Z,67.88
2018-07-06T06:34:44.832Z,68.19
2018-07-06T06:37:14.260Z,68.10
2018-07-06T06:39:43.768Z,68.51
2018-07-06T06:42:13.308Z,68.54
2018-07-06T06:44:42.598Z,68.24
2018-07-06T06:47:12.345Z,68.34
2018-07-06T06:49:41.902Z,67.80
2018-07-06T06:52:12.019Z,68.45
2018-07-06T06:54:41.535Z,68.16
2018-07-06T06:57:10.752Z,67.92
2018-07-06T06:59:40.179Z,68.09
2018-07-06T07:02:09.206Z,67.53
2018-07-06T07:04:39.214Z,67.28
2018-07-06T07:07:08.134Z,67.35
2018-07-06T07:09:37.214Z,67.91
2018-07-06T07:12:06.160Z,68.02
2018-07-06T07:14:34.983Z,67.61
2018-07-06T07:17:04.483Z,66.83
2018-07-06T07:19:33.359Z,67.79
2018-07-06T07:22:02.273Z,66.91
2018-07-06T07:24:30.864Z,66.95
2018-07-06T07:27:01.462Z,66.82
2018-07-06T07:29:30.813Z,66.89
2018-07-06T07:31:59.725Z,67.31
2018-07-06T07:34:28.523Z,67.15
2018-07-06T07:36:57.180Z,66.83
2018-07-06T07:39:25.980Z,66.43
2018-07-06T07:41:54.701Z,66.39
2018-07-06T07:44:23.349Z,66.94
2018-07-06T07:46:51.925Z,66.42
2018-07-06T07:49:20.615Z,66.82
2018-07-06T07:52:04.488Z,66.72
2018-07-06T07:54:44.209Z,66.02
2018-07-06T07:57:12.913Z,65.64
2018-07-06T07:59:42.034Z,65.75
2018-07-06T08:02:11.472Z,65.75
2018-07-06T08:04:40.356Z,65.19
2018-07-06T08:07:08.971Z,66.02
2018-07-06T08:09:37.892Z,66.05
2018-07-06T08:12:06.592Z,65.99
2018-07-06T08:14:35.375Z,65.15
2018-07-06T08:17:04.056Z,66.02
2018-07-06T08:19:32.781Z,65.60
2018-07-06T08:22:02.264Z,65.19
2018-07-06T08:24:30.887Z,65.66
2018-07-06T08:26:59.632Z,65.51
2018-07-06T08:29:28.193Z,65.77
2018-07-06T08:31:56.828Z,65.67
2018-07-06T08:40:06.928Z,65.29
2018-07-06T08:42:36.415Z,65.24
2018-07-06T08:45:05.392Z,64.83
2018-07-06T08:47:34.204Z,65.10
2018-07-06T08:50:03.368Z,65.86
2018-07-06T08:52:31.959Z,65.03
2018-07-06T08:55:00.522Z,65.66
2018-07-06T08:57:30.259Z,65.41
2018-07-06T08:59:58.821Z,65.46
2018-07-06T09:02:27.693Z,64.83
2018-07-06T09:04:57.021Z,66.08
2018-07-06T09:07:25.878Z,66.16
2018-07-06T09:09:55.243Z,66.25
2018-07-06T09:12:23.831Z,66.03
2018-07-06T09:14:52.392Z,65.23
2018-07-06T09:17:21.488Z,64.92
2018-07-06T09:19:50.989Z,65.33
2018-07-06T09:22:19.763Z,65.39
2018-07-06T09:24:49.856Z,66.38
2018-07-06T09:27:18.428Z,65.65
2018-07-06T09:29:47.035Z,65.73
2018-07-06T09:32:15.614Z,65.47
2018-07-06T09:34:44.215Z,65.72
2018-07-06T09:37:13.093Z,66.15
2018-07-06T09:39:42.584Z,66.85
2018-07-06T09:42:11.339Z,65.78
2018-07-06T09:44:40.017Z,65.57
2018-07-06T09:47:08.591Z,66.63
2018-07-06T09:49:37.529Z,66.02
2018-07-06T09:52:06.132Z,66.56
2018-07-06T09:54:34.756Z,66.48
2018-07-06T09:57:03.508Z,66.42
2018-07-06T09:59:32.136Z,66.17
2018-07-06T10:02:00.740Z,66.72
2018-07-06T10:04:29.364Z,66.52
2018-07-06T10:06:58.765Z,67.28
2018-07-06T10:09:27.769Z,66.60
2018-07-06T10:11:56.780Z,66.52
2018-07-06T10:14:25.452Z,66.24
2018-07-06T10:16:54.221Z,66.58
2018-07-06T10:19:22.961Z,66.66
2018-07-06T10:21:51.579Z,65.51
2018-07-06T10:24:20.358Z,65.53
2018-07-06T10:26:48.974Z,64.74
2018-07-06T10:31:29.046Z,65.88
2018-07-06T10:33:57.645Z,64.73
2018-07-06T10:36:26.407Z,64.56
2018-07-06T10:38:55.025Z,64.50
2018-07-06T10:41:23.632Z,64.44
2018-07-06T10:43:52.182Z,65.11
2018-07-06T10:46:20.919Z,64.34
2018-07-06T10:48:49.483Z,63.87
2018-07-06T10:51:18.043Z,64.19
2018-07-06T10:53:46.608Z,63.66
2018-07-06T10:56:15.188Z,63.50
2018-07-06T10:58:43.999Z,62.45
2018-07-06T11:01:12.752Z,62.77
2018-07-06T11:03:41.676Z,62.33
2018-07-06T11:06:10.292Z,62.85
2018-07-06T11:08:38.920Z,62.73
2018-07-06T11:11:07.492Z,62.94
2018-07-06T11:13:36.049Z,61.80
2018-07-06T11:16:04.636Z,61.93
2018-07-06T11:18:33.247Z,62.85
2018-07-06T11:21:01.860Z,63.11
2018-07-06T11:23:30.411Z,61.51
2018-07-06T11:25:58.991Z,61.82
2018-07-06T11:28:27.638Z,61.92
2018-07-06T11:30:56.184Z,62.15
2018-07-06T11:33:24.804Z,63.08
2018-07-06T11:35:53.351Z,63.20
2018-07-06T11:38:22.015Z,64.14
2018-07-06T11:40:50.604Z,64.06
2018-07-06T11:43:19.204Z,63.95
2018-07-06T11:45:47.748Z,63.22
2018-07-06T11:48:16.397Z,64.64
2018-07-06T11:50:44.956Z,63.19
2018-07-06T11:53:13.584Z,64.87
2018-07-06T11:55:42.174Z,65.16
2018-07-06T11:58:10.740Z,66.62
2018-07-06T12:00:39.328Z,67.01
2018-07-06T12:03:07.968Z,67.66
2018-07-06T12:05:37.358Z,67.28
2018-07-06T12:08:05.990Z,67.62
2018-07-06T12:10:34.721Z,68.68
2018-07-06T12:13:03.472Z,69.25
2018-07-06T12:15:32.365Z,68.93
2018-07-06T12:18:01.100Z,69.61
2018-07-06T12:20:29.668Z,70.21
2018-07-06T12:22:58.248Z,69.85
2018-07-06T12:25:26.909Z,70.75
2018-07-06T12:27:55.666Z,70.21
2018-07-06T12:30:24.176Z,69.30
2018-07-06T12:32:52.691Z,71.00
2018-07-06T12:35:21.236Z,71.04
2018-07-06T12:37:49.833Z,70.36
2018-07-06T12:40:19.220Z,70.43
2018-07-06T12:42:47.782Z,70.84
2018-07-06T12:45:16.967Z,70.81
2018-07-06T12:47:45.523Z,70.90
2018-07-06T12:50:14.133Z,69.92
2018-07-06T12:52:42.701Z,70.23
2018-07-06T12:55:11.528Z,70.81
2018-07-06T12:57:40.123Z,70.78
2018-07-06T13:00:08.742Z,70.53
2018-07-06T13:02:37.326Z,70.59
2018-07-06T13:05:07.021Z,70.04
2018-07-06T13:07:35.630Z,70.95
2018-07-06T13:10:04.267Z,71.26
2018-07-06T13:12:32.892Z,70.38
2018-07-06T13:15:15.724Z,70.58
2018-07-06T13:17:44.281Z,70.23
2018-07-06T13:20:13.392Z,68.62
2018-07-06T13:22:41.949Z,66.91
2018-07-06T13:25:11.215Z,68.13
2018-07-06T13:27:40.284Z,67.83
2018-07-06T13:30:09.687Z,67.24
2018-07-06T13:32:40.551Z,66.05
2018-07-06T13:35:12.940Z,66.75
2018-07-06T13:37:41.514Z,67.56
2018-07-06T13:40:10.103Z,67.32
2018-07-06T13:42:38.748Z,67.63
2018-07-06T13:45:07.400Z,67.73
2018-07-06T13:47:36.074Z,67.44
2018-07-06T13:50:04.716Z,67.31
2018-07-06T13:52:33.301Z,66.40
2018-07-06T13:55:02.015Z,67.03
2018-07-06T13:57:30.817Z,66.08
2018-07-06T13:59:59.371Z,66.29
2018-07-06T14:02:27.958Z,66.15
2018-07-06T14:04:57.333Z,66.13
2018-07-06T14:07:25.966Z,66.56
2018-07-06T14:09:54.847Z,65.43
2018-07-06T14:12:23.553Z,65.81
2018-07-06T14:14:52.245Z,65.83
2018-07-06T14:17:20.866Z,66.36
2018-07-06T14:19:49.462Z,67.16
2018-07-06T14:22:18.064Z,67.00
2018-07-06T14:24:46.624Z,67.01
2018-07-06T14:27:15.180Z,65.94
2018-07-06T14:29:44.032Z,66.98
2018-07-06T14:32:12.717Z,66.22
2018-07-06T14:34:41.544Z,67.46
2018-07-06T14:37:10.316Z,67.67
2018-07-06T14:39:40.725Z,67.32
2018-07-06T14:42:09.561Z,66.13
2018-07-06T14:44:40.375Z,66.32
2018-07-06T14:47:09.033Z,66.38
2018-07-06T14:49:40.464Z,66.83
2018-07-06T14:52:09.088Z,67.56
2018-07-06T14:54:40.356Z,68.25
2018-07-06T14:57:09.064Z,68.77
2018-07-06T15:02:46.272Z,69.00
2018-07-06T15:05:14.841Z,69.36
2018-07-06T15:07:43.444Z,69.26
2018-07-06T15:10:12.528Z,68.68
2018-07-06T15:12:41.255Z,68.55
2018-07-06T15:15:09.817Z,69.48
2018-07-06T15:17:38.485Z,69.85
2018-07-06T15:20:07.308Z,69.44
2018-07-06T15:22:35.951Z,69.35
2018-07-06T15:25:04.584Z,68.65
2018-07-06T15:27:33.146Z,69.00
2018-07-06T15:30:02.009Z,68.84
2018-07-06T15:32:31.072Z,68.72
2018-07-06T15:34:59.664Z,68.15
2018-07-06T15:37:28.267Z,68.70
2018-07-06T15:39:56.932Z,68.62
2018-07-06T15:42:25.512Z,69.14
2018-07-06T15:44:54.070Z,68.69
2018-07-06T15:47:22.677Z,67.53
2018-07-06T15:49:51.411Z,68.20
2018-07-06T15:52:20.004Z,67.66
2018-07-06T15:54:48.664Z,66.87
2018-07-06T15:57:18.119Z,67.04
2018-07-06T15:59:46.715Z,67.27
2018-07-06T16:02:15.304Z,66.73
2018-07-06T16:04:43.877Z,66.85
2018-07-06T16:07:14.229Z,66.47
2018-07-06T16:09:42.834Z,66.61
2018-07-06T16:12:11.395Z,66.77
2018-07-06T16:14:40.113Z,66.17
2018-07-06T16:17:08.707Z,66.55
2018-07-06T16:19:37.270Z,65.58
2018-07-06T16:22:06.017Z,66.20
2018-07-06T16:24:34.656Z,66.29
2018-07-06T16:27:03.327Z,65.56
2018-07-06T16:29:31.871Z,66.24
2018-07-06T16:32:00.416Z,66.12
2018-07-06T16:34:28.978Z,66.04
2018-07-06T16:36:57.560Z,66.97
2018-07-06T16:39:26.201Z,66.54
2018-07-06T16:41:54.780Z,66.92
2018-07-06T16:44:23.529Z,66.72
2018-07-06T16:46:52.172Z,67.80
2018-07-06T16:51:48.368Z,68.33
2018-07-06T16:54:16.902Z,67.88
2018-07-06T16:56:45.468Z,68.11
2018-07-06T16:59:14.203Z,68.31
2018-07-06T17:01:42.761Z,68.20
2018-07-06T17:04:11.307Z,68.29
2018-07-06T17:06:40.089Z,67.67
2018-07-06T17:09:08.855Z,68.25
2018-07-06T17:11:37.389Z,67.84
2018-07-06T17:14:06.238Z,69.08
2018-07-06T17:16:34.893Z,69.29
2018-07-06T17:19:03.529Z,68.97
2018-07-06T17:21:32.126Z,69.02
2018-07-06T17:24:00.710Z,69.07
2018-07-06T17:26:29.320Z,68.75
2018-07-06T17:28:57.888Z,69.48
2018-07-06T17:31:26.780Z,69.46
2018-07-06T17:33:55.347Z,68.89
2018-07-06T17:36:24.123Z,68.41
2018-07-06T17:38:52.656Z,68.65
2018-07-06T17:41:21.386Z,68.35
2018-07-06T17:43:49.964Z,68.24
2018-07-06T17:46:18.602Z,69.07
2018-07-06T17:48:47.146Z,68.81
2018-07-06T17:51:15.951Z,68.01
2018-07-06T17:53:44.495Z,68.75
2018-07-06T17:56:13.060Z,68.79
2018-07-06T17:58:41.783Z,68.64
2018-07-06T18:01:10.364Z,69.38
2018-07-06T18:03:39.040Z,69.43
2018-07-06T18:06:07.751Z,69.69
2018-07-06T18:08:37.105Z,69.09
2018-07-06T18:11:05.904Z,69.54
2018-07-06T18:13:36.943Z,69.75
2018-07-06T18:16:05.742Z,69.10
2018-07-06T18:18:34.521Z,67.47
2018-07-06T18:21:03.177Z,67.62
2018-07-06T18:23:31.756Z,67.82
2018-07-06T18:26:00.325Z,69.04
2018-07-06T18:28:28.880Z,68.88
2018-07-06T18:30:57.507Z,68.38
2018-07-06T18:33:26.151Z,68.70
2018-07-06T18:35:54.689Z,68.06
2018-07-06T18:38:23.324Z,68.40
2018-07-06T18:40:51.899Z,67.63
2018-07-06T18:43:20.476Z,66.46
2018-07-06T18:45:49.414Z,66.94
2018-07-06T18:48:18.015Z,66.01
2018-07-06T18:50:46.796Z,65.11
2018-07-06T18:53:15.396Z,65.52
2018-07-06T18:55:44.032Z,66.00
2018-07-06T18:58:12.592Z,65.56
2018-07-06T19:00:41.276Z,65.82
2018-07-06T19:03:09.839Z,66.00
2018-07-06T19:05:38.521Z,66.29
2018-07-06T19:08:07.140Z,66.22
2018-07-06T19:10:35.723Z,65.82
2018-07-06T19:13:04.435Z,65.02
2018-07-06T19:15:33.965Z,65.79
2018-07-06T19:18:02.568Z,65.27
2018-07-06T19:20:31.242Z,66.06
2018-07-06T19:22:59.795Z,65.69
2018-07-06T19:25:28.558Z,66.57
2018-07-06T19:27:58.148Z,66.23
2018-07-06T19:30:26.891Z,67.12
2018-07-06T19:32:55.479Z,67.67
2018-07-06T19:35:24.220Z,67.81
2018-07-06T19:37:52.808Z,67.66
2018-07-06T19:40:21.367Z,67.64
2018-07-06T19:42:50.074Z,67.87
2018-07-06T19:45:18.636Z,67.34
2018-07-06T19:47:47.176Z,67.28
2018-07-06T19:50:15.860Z,68.10
2018-07-06T19:52:44.438Z,67.57
2018-07-06T19:55:13.228Z,66.46
2018-07-06T19:57:41.818Z,66.63
2018-07-06T20:00:10.471Z,66.46
2018-07-06T20:02:39.049Z,66.97
2018-07-06T20:05:07.964Z,66.19
2018-07-06T20:07:37.398Z,66.76
2018-07-06T20:10:06.379Z,66.64
2018-07-06T20:12:35.028Z,65.92
2018-07-06T20:15:03.636Z,66.47
2018-07-06T20:17:32.229Z,66.45
2018-07-06T20:20:01.061Z,66.83
2018-07-06T20:22:29.744Z,67.00
2018-07-06T20:24:58.366Z,67.39
2018-07-06T20:27:26.961Z,67.50
2018-07-06T20:29:56.522Z,67.00
2018-07-06T20:32:25.061Z,67.62
2018-07-06T20:34:53.642Z,66.93
2018-07-06T20:37:22.246Z,67.77
2018-07-06T20:39:50.824Z,67.78
2018-07-06T20:42:19.450Z,67.00
2018-07-06T20:44:48.018Z,67.55
2018-07-06T20:47:16.637Z,67.60
2018-07-06T20:49:45.176Z,67.83
2018-07-06T20:52:13.797Z,68.25
2018-07-06T20:54:42.335Z,67.90
2018-07-06T20:57:10.901Z,69.06
2018-07-06T20:59:39.641Z,68.30
2018-07-06T21:02:08.312Z,68.47
2018-07-06T21:04:36.874Z,68.90
2018-07-06T21:07:05.910Z,69.51
2018-07-06T21:09:34.607Z,69.38
2018-07-06T21:12:03.562Z,69.84
2018-07-06T21:14:32.302Z,70.19
2018-07-06T21:17:00.885Z,70.70
2018-07-06T21:19:29.443Z,71.10
2018-07-06T21:21:58.073Z,71.43
2018-07-06T21:24:26.656Z,71.05
2018-07-06T21:26:55.216Z,71.48
2018-07-06T21:29:23.825Z,70.85
2018-07-06T21:31:52.579Z,71.34
2018-07-06T21:34:21.516Z,71.36
2018-07-06T21:39:40.309Z,70.92
2018-07-06T21:42:08.890Z,71.06
2018-07-06T21:44:37.662Z,71.77
2018-07-06T21:47:06.862Z,72.28
2018-07-06T21:49:35.682Z,71.77
2018-07-06T21:52:04.308Z,72.58
2018-07-06T21:57:23.409Z,72.84
2018-07-06T21:59:52.139Z,72.62
2018-07-06T22:02:20.945Z,72.35
2018-07-06T22:04:49.540Z,72.69
2018-07-06T22:07:18.890Z,73.44
2018-07-06T22:09:47.651Z,73.58
2018-07-06T22:12:16.224Z,73.01
2018-07-06T22:14:44.825Z,72.04
2018-07-06T22:17:14.008Z,72.73
2018-07-06T22:19:42.622Z,72.80
2018-07-06T22:22:11.257Z,73.31
2018-07-06T22:24:39.852Z,72.85
2018-07-06T22:27:08.400Z,73.23
2018-07-06T22:29:36.935Z,73.40
2018-07-06T22:32:05.572Z,73.57
2018-07-06T22:34:34.122Z,73.70
2018-07-06T22:37:02.703Z,73.17
2018-07-06T22:39:31.343Z,73.13
2018-07-06T22:41:59.856Z,72.98
2018-07-06T22:44:28.734Z,73.33
2018-07-06T22:46:57.337Z,73.33
2018-07-06T22:49:25.935Z,73.82
2018-07-06T22:51:54.517Z,73.48
2018-07-06T22:54:23.101Z,73.26
2018-07-06T22:56:51.751Z,72.95
2018-07-06T22:59:30.425Z,73.69
2018-07-06T23:01:59.107Z,74.52
2018-07-06T23:04:27.773Z,73.71
2018-07-06T23:06:56.315Z,73.92
2018-07-06T23:09:24.886Z,73.73
2018-07-06T23:11:53.584Z,74.32
2018-07-06T23:14:22.367Z,73.27
2018-07-06T23:16:50.937Z,73.88
2018-07-06T23:19:19.636Z,73.90
2018-07-06T23:21:48.228Z,73.80
2018-07-06T23:24:16.799Z,74.47
2018-07-06T23:26:45.407Z,74.69
2018-07-06T23:29:13.989Z,73.61
2018-07-06T23:34:32.851Z,74.85
2018-07-06T23:37:01.429Z,74.76
2018-07-06T23:39:29.975Z,74.47
2018-07-06T23:41:58.562Z,74.67
2018-07-06T23:44:27.116Z,74.40
2018-07-06T23:46:55.665Z,74.62
2018-07-06T23:49:24.219Z,74.95
2018-07-06T23:51:52.800Z,74.89
2018-07-06T23:54:21.390Z,74.82
2018-07-06T23:56:49.954Z,73.89
2018-07-06T23:59:18.518Z,74.54
